Time;durP1;ratioP1;P1;durP2;ratioP2;P2;SDS_P1;SDS_P2;PMS_P1;PMS_P2;Temp;Humidity;BMP_temperature;BMP_pressure;BME280_temperature;BME280_humidity;BME280_pressure;Samples;Min_cycle;Max_cycle;Signal;HPM_P1;HPM_P2
2022/11/23 00:01:12;;;;;;;13.27;3.23;;;;;;;7.96;88.58;99199.59;5017380;28;20325;-62
2022/11/23 00:03:40;;;;;;;7.67;2.50;;;;;;;7.91;88.76;99196.63;5016211;28;20215;-65
2022/11/23 00:06:09;;;;;;;9.97;3.10;;;;;;;8.01;88.48;99196.44;5017521;28;20233;-63
2022/11/23 00:08:37;;;;;;;11.03;2.97;;;;;;;7.93;88.63;99195.44;5015726;28;20295;-63
2022/11/23 00:11:06;;;;;;;10.13;3.17;;;;;;;7.93;88.69;99195.44;5011636;28;20385;-65
2022/11/23 00:13:34;;;;;;;7.73;3.07;;;;;;;7.93;88.91;99194.63;5015065;28;20202;-64
2022/11/23 00:16:09;;;;;;;10.33;3.40;;;;;;;7.97;89.35;99190.69;5018950;28;20214;-63
2022/11/23 00:18:38;;;;;;;8.97;3.17;;;;;;;8.04;88.08;99182.94;5014705;28;20578;-63
2022/11/23 00:21:08;;;;;;;9.40;3.27;;;;;;;8.02;88.68;99182.25;5020885;28;20234;-65
2022/11/23 00:23:41;;;;;;;12.43;3.10;;;;;;;7.98;88.65;99187.06;5008408;28;20206;-64
2022/11/23 00:26:10;;;;;;;9.30;3.17;;;;;;;7.91;88.78;99184.25;5019046;28;20221;-63
2022/11/23 00:28:40;;;;;;;12.43;3.23;;;;;;;7.89;88.96;99194.13;5031324;28;20205;-64
2022/11/23 00:31:12;;;;;;;7.63;2.63;;;;;;;7.86;89.67;99194.44;5031466;28;20654;-63
2022/11/23 00:33:40;;;;;;;10.40;2.83;;;;;;;7.88;89.56;99197.75;5016063;28;20955;-63
2022/11/23 00:36:11;;;;;;;7.63;2.60;;;;;;;7.97;89.21;99195.13;5016651;28;20242;-63
2022/11/23 00:38:39;;;;;;;9.93;3.10;;;;;;;7.97;89.28;99195.13;5019642;28;20298;-63
2022/11/23 00:41:09;;;;;;;14.83;3.30;;;;;;;8.00;88.94;99200.09;5022656;28;20206;-63
2022/11/23 00:43:37;;;;;;;6.87;2.87;;;;;;;8.01;89.20;99201.72;5014422;28;20237;-63
2022/11/23 00:46:06;;;;;;;9.83;3.00;;;;;;;8.03;89.23;99192.66;5015515;28;20265;-63
2022/11/23 00:48:36;;;;;;;12.53;2.90;;;;;;;8.08;88.82;99186.91;5023250;28;20214;-64
2022/11/23 00:51:06;;;;;;;9.17;3.40;;;;;;;8.03;88.73;99190.03;5015196;28;20224;-63
2022/11/23 00:53:34;;;;;;;10.80;2.90;;;;;;;8.05;88.85;99203.06;5025356;28;20210;-63
2022/11/23 00:56:02;;;;;;;11.87;4.00;;;;;;;8.06;88.58;99196.81;5014844;28;20582;-63
2022/11/23 00:58:30;;;;;;;14.20;3.93;;;;;;;8.02;88.34;99203.38;5013049;28;20223;-63
2022/11/23 01:01:03;;;;;;;12.33;3.50;;;;;;;7.99;88.74;99206.38;5016013;28;20225;-62
2022/11/23 01:03:31;;;;;;;12.57;3.07;;;;;;;7.97;88.87;99205.69;5013030;28;20222;-63
2022/11/23 01:06:07;;;;;;;9.47;2.73;;;;;;;8.01;89.06;99201.72;5017369;28;20235;-62
2022/11/23 01:08:35;;;;;;;9.73;3.20;;;;;;;7.97;89.03;99214.44;5010019;28;20665;-64
2022/11/23 01:11:06;;;;;;;10.30;2.63;;;;;;;8.00;89.33;99210.66;5014294;28;20254;-63
2022/11/23 01:13:33;;;;;;;10.30;2.87;;;;;;;8.04;88.69;99217.25;5012778;28;20203;-64
2022/11/23 01:16:01;;;;;;;9.67;2.60;;;;;;;8.09;88.27;99217.59;5020931;28;20831;-64
2022/11/23 01:18:29;;;;;;;5.10;2.07;;;;;;;7.99;88.93;99219.56;5015905;28;20221;-64
2022/11/23 01:20:57;;;;;;;9.43;2.67;;;;;;;8.02;89.35;99214.78;5014828;28;20222;-62
2022/11/23 01:23:28;;;;;;;9.43;2.90;;;;;;;8.11;88.73;99219.06;5015805;28;20218;-65
2022/11/23 01:25:56;;;;;;;8.73;2.70;;;;;;;8.13;88.89;99222.38;5023733;28;20249;-64
2022/11/23 01:28:24;;;;;;;11.90;3.27;;;;;;;8.18;88.66;99221.91;5020818;28;20244;-64
2022/11/23 01:30:52;;;;;;;14.13;3.10;;;;;;;8.22;88.14;99220.59;5014046;28;20205;-63
2022/11/23 01:33:20;;;;;;;8.77;2.70;;;;;;;8.23;88.21;99228.34;5012591;28;20236;-65
2022/11/23 01:35:47;;;;;;;9.73;2.50;;;;;;;8.19;88.45;99219.09;5018895;28;20212;-62
2022/11/23 01:38:15;;;;;;;12.00;2.80;;;;;;;8.19;88.46;99221.72;5021293;28;20213;-63
2022/11/23 01:40:46;;;;;;;8.13;2.70;;;;;;;8.20;88.30;99222.56;5022069;28;20226;-63
2022/11/23 01:43:15;;;;;;;10.40;3.00;;;;;;;8.21;88.46;99214.47;5014740;28;20219;-62
2022/11/23 01:45:45;;;;;;;10.20;3.47;;;;;;;8.21;88.63;99216.28;5015697;28;20648;-63
2022/11/23 01:48:17;;;;;;;11.37;3.50;;;;;;;8.18;88.72;99214.00;5013746;28;20205;-63
2022/11/23 01:50:48;;;;;;;9.50;2.70;;;;;;;8.21;88.54;99225.03;5023510;28;20210;-64
2022/11/23 01:53:16;;;;;;;11.73;3.00;;;;;;;8.17;88.38;99228.19;5024118;28;20209;-62
2022/11/23 01:55:47;;;;;;;10.67;2.67;;;;;;;8.20;88.25;99227.84;5020918;28;20647;-62
2022/11/23 01:58:18;;;;;;;9.10;2.53;;;;;;;8.21;88.35;99224.22;5018061;28;20305;-64
2022/11/23 02:00:46;;;;;;;10.43;2.83;;;;;;;8.22;88.24;99225.88;5017928;28;20215;-63
2022/11/23 02:03:14;;;;;;;10.43;3.30;;;;;;;8.23;87.95;99225.72;5013413;28;20264;-63
2022/11/23 02:05:46;;;;;;;7.90;2.70;;;;;;;8.22;87.96;99228.50;5017886;28;20239;-64
2022/11/23 02:08:16;;;;;;;11.53;2.77;;;;;;;8.20;87.97;99227.84;5017548;28;20212;-64
2022/11/23 02:10:47;;;;;;;10.40;2.87;;;;;;;8.19;88.09;99229.66;5024975;28;20227;-65
2022/11/23 02:13:19;;;;;;;9.60;2.90;;;;;;;8.16;88.39;99226.53;5021990;28;20213;-63
2022/11/23 02:15:47;;;;;;;8.57;2.60;;;;;;;8.12;89.06;99230.47;5019290;28;20293;-64
2022/11/23 02:18:19;;;;;;;12.20;2.73;;;;;;;8.16;88.89;99232.63;5021351;28;20214;-62
2022/11/23 02:20:47;;;;;;;10.23;2.67;;;;;;;8.16;89.14;99231.81;5024937;28;20198;-62
2022/11/23 02:23:28;;;;;;;12.00;2.67;;;;;;;8.22;88.53;99229.34;5021655;28;20214;-63
2022/11/23 02:26:02;;;;;;;12.37;3.17;;;;;;;8.19;88.71;99231.47;5017422;28;20217;-63
2022/11/23 02:28:36;;;;;;;7.80;2.10;;;;;;;8.24;88.34;99226.53;5031878;28;20214;-62
2022/11/23 02:31:04;;;;;;;9.40;2.87;;;;;;;8.24;88.47;99224.72;5023881;28;20211;-63
2022/11/23 02:33:31;;;;;;;10.03;3.03;;;;;;;8.32;88.15;99225.75;5021421;28;20580;-62
2022/11/23 02:36:01;;;;;;;6.97;2.87;;;;;;;8.33;87.97;99227.41;5017459;28;20277;-64
2022/11/23 02:38:32;;;;;;;11.67;3.10;;;;;;;8.29;88.15;99226.84;5020858;28;20276;-63
2022/11/23 02:41:01;;;;;;;11.90;3.10;;;;;;;8.28;88.11;99217.28;5023384;28;20206;-62
2022/11/23 02:43:28;;;;;;;7.13;2.47;;;;;;;8.29;87.96;99218.94;5019610;28;20284;-62
2022/11/23 02:45:58;;;;;;;12.73;3.00;;;;;;;8.25;88.69;99220.28;5018912;28;20257;-62
2022/11/23 02:48:26;;;;;;;12.37;2.80;;;;;;;8.25;88.28;99221.09;5020970;28;20245;-62
2022/11/23 02:50:54;;;;;;;13.83;3.07;;;;;;;8.27;88.42;99215.63;5023588;28;20598;-64
2022/11/23 02:53:22;;;;;;;10.77;3.33;;;;;;;8.30;88.03;99210.03;5015849;28;20308;-65
2022/11/23 02:55:49;;;;;;;16.17;2.83;;;;;;;8.23;88.48;99211.69;5017819;28;20208;-64
2022/11/23 02:58:18;;;;;;;10.50;2.67;;;;;;;8.19;88.93;99210.34;5014535;28;20212;-63
2022/11/23 03:00:46;;;;;;;7.90;2.50;;;;;;;8.22;88.75;99216.13;5017547;28;20214;-62
2022/11/23 03:03:14;;;;;;;8.23;2.60;;;;;;;8.23;88.91;99215.16;5010518;28;20205;-64
2022/11/23 03:05:42;;;;;;;8.40;2.43;;;;;;;8.30;88.47;99218.78;5018401;28;20210;-62
2022/11/23 03:08:09;;;;;;;9.87;2.53;;;;;;;8.26;88.57;99211.34;5017464;28;20478;-63
2022/11/23 03:10:37;;;;;;;9.30;2.43;;;;;;;8.36;88.41;99216.47;5019464;28;20599;-64
2022/11/23 03:13:05;;;;;;;10.03;2.57;;;;;;;8.33;87.88;99211.56;5018005;28;20712;-62
2022/11/23 03:15:34;;;;;;;9.70;2.63;;;;;;;8.31;88.02;99214.34;5025165;28;20619;-63
2022/11/23 03:18:01;;;;;;;7.27;1.90;;;;;;;8.37;87.67;99218.16;5022628;28;20214;-63
2022/11/23 03:20:29;;;;;;;7.70;2.30;;;;;;;8.36;87.23;99219.13;5019716;28;20218;-62
2022/11/23 03:22:57;;;;;;;7.53;2.20;;;;;;;8.31;87.71;99222.28;5015656;28;20210;-63
2022/11/23 03:25:25;;;;;;;8.73;2.20;;;;;;;8.32;87.70;99220.47;5015826;28;20221;-62
2022/11/23 03:27:52;;;;;;;6.83;2.03;;;;;;;8.36;87.81;99217.31;5022738;28;20230;-62
2022/11/23 03:30:20;;;;;;;11.33;3.10;;;;;;;8.38;87.79;99222.44;5020963;28;20581;-64
2022/11/23 03:32:49;;;;;;;5.93;2.83;;;;;;;8.36;87.63;99222.59;5014769;28;20736;-65
2022/11/23 03:35:17;;;;;;;7.50;1.90;;;;;;;8.41;87.69;99224.75;5015219;28;20247;-62
2022/11/23 03:37:45;;;;;;;11.23;2.60;;;;;;;8.40;87.59;99223.94;5020470;28;20211;-63
2022/11/23 03:40:13;;;;;;;10.50;2.20;;;;;;;8.48;87.14;99225.75;5020312;28;21341;-63
2022/11/23 03:42:41;;;;;;;9.37;1.90;;;;;;;8.45;87.08;99220.78;5015324;28;20295;-62
2022/11/23 03:45:09;;;;;;;9.37;2.40;;;;;;;8.45;87.02;99221.59;5017620;28;20203;-61
2022/11/23 03:47:37;;;;;;;8.87;2.33;;;;;;;8.47;86.67;99218.81;5014828;28;20243;-62
2022/11/23 03:50:08;;;;;;;10.40;3.17;;;;;;;8.38;87.19;99220.63;5024150;28;20224;-63
2022/11/23 03:52:35;;;;;;;7.47;2.50;;;;;;;8.33;87.74;99222.94;5020729;28;20305;-63
2022/11/23 03:55:04;;;;;;;9.20;2.23;;;;;;;8.33;87.96;99228.22;5023011;28;20683;-64
2022/11/23 03:57:32;;;;;;;8.00;2.13;;;;;;;8.36;88.26;99229.69;5014423;28;20220;-63
2022/11/23 03:59:59;;;;;;;7.40;2.10;;;;;;;8.37;88.02;99229.53;5021220;28;20215;-63
2022/11/23 04:02:27;;;;;;;6.97;2.53;;;;;;;8.35;88.37;99222.78;5014285;28;20218;-64
2022/11/23 04:04:55;;;;;;;5.27;1.97;;;;;;;8.38;88.11;99220.63;5013833;28;20685;-63
2022/11/23 04:07:24;;;;;;;7.00;2.40;;;;;;;8.40;87.97;99218.66;5018214;28;20232;-65
2022/11/23 04:09:51;;;;;;;12.43;2.30;;;;;;;8.40;88.20;99220.47;5018227;28;20231;-66
2022/11/23 04:12:19;;;;;;;12.60;2.73;;;;;;;8.39;88.09;99222.28;5025117;28;20235;-62
2022/11/23 04:14:47;;;;;;;6.80;1.97;;;;;;;8.40;87.89;99220.47;5023364;28;20647;-63
2022/11/23 04:17:14;;;;;;;10.33;2.70;;;;;;;8.44;87.58;99224.44;5013400;28;20270;-62
2022/11/23 04:19:42;;;;;;;7.93;2.17;;;;;;;8.39;88.53;99226.72;5012256;28;20223;-65
2022/11/23 04:22:10;;;;;;;10.67;2.60;;;;;;;8.39;88.37;99221.44;5012463;28;20222;-63
2022/11/23 04:24:39;;;;;;;6.70;2.13;;;;;;;8.41;88.55;99220.31;5020834;28;20214;-65
2022/11/23 04:27:07;;;;;;;9.43;2.20;;;;;;;8.46;87.97;99220.63;5017635;28;20250;-62
2022/11/23 04:29:34;;;;;;;7.87;2.47;;;;;;;8.48;87.82;99218.66;5026194;28;20915;-64
2022/11/23 04:32:05;;;;;;;6.80;1.70;;;;;;;8.51;87.65;99220.97;5013185;28;20303;-64
2022/11/23 04:34:33;;;;;;;6.70;2.00;;;;;;;8.52;87.63;99225.28;5020118;28;20215;-61
2022/11/23 04:37:01;;;;;;;7.83;2.07;;;;;;;8.55;87.38;99222.28;5019788;28;20214;-65
2022/11/23 04:39:28;;;;;;;9.70;2.37;;;;;;;8.53;87.15;99218.97;5016754;28;20214;-64
2022/11/23 04:41:58;;;;;;;7.73;1.70;;;;;;;8.48;87.42;99221.28;5027352;28;20221;-63
2022/11/23 04:44:25;;;;;;;9.10;1.83;;;;;;;8.45;88.06;99218.97;5015141;28;20771;-61
2022/11/23 04:46:53;;;;;;;6.93;1.80;;;;;;;8.41;88.18;99225.59;5017051;28;20241;-61
2022/11/23 04:49:21;;;;;;;5.40;2.30;;;;;;;8.38;88.88;99217.97;5018323;28;20211;-64
2022/11/23 04:51:49;;;;;;;5.67;1.87;;;;;;;8.45;88.60;99216.31;5017474;28;20240;-63
2022/11/23 04:54:16;;;;;;;6.37;2.00;;;;;;;8.45;88.32;99221.59;5009951;28;20282;-64
2022/11/23 04:56:44;;;;;;;6.20;1.87;;;;;;;8.45;87.86;99218.97;5018490;28;20218;-63
2022/11/23 04:59:18;;;;;;;7.90;1.83;;;;;;;8.43;88.20;99213.06;5010598;28;20252;-61
2022/11/23 05:01:46;;;;;;;9.87;1.97;;;;;;;8.45;88.54;99218.97;5022801;28;20307;-65
2022/11/23 05:04:14;;;;;;;7.10;2.00;;;;;;;8.46;88.22;99223.25;5017760;28;20240;-63
2022/11/23 05:06:44;;;;;;;9.03;2.10;;;;;;;8.43;88.33;99218.34;5014868;28;20630;-63
2022/11/23 05:09:12;;;;;;;7.87;2.27;;;;;;;8.46;88.55;99217.16;5015796;28;20219;-64
2022/11/23 05:11:43;;;;;;;9.30;2.47;;;;;;;8.48;88.03;99213.38;5014348;28;20607;-63
2022/11/23 05:14:11;;;;;;;6.03;1.93;;;;;;;8.49;88.00;99222.13;5015392;28;20676;-62
2022/11/23 05:16:40;;;;;;;8.93;1.90;;;;;;;8.45;88.09;99221.59;5014622;28;20640;-63
2022/11/23 05:19:11;;;;;;;7.87;2.20;;;;;;;8.45;88.40;99221.59;5026423;28;20234;-64
2022/11/23 05:21:38;;;;;;;9.20;2.17;;;;;;;8.50;87.94;99218.50;5018488;28;20234;-65
2022/11/23 05:24:09;;;;;;;4.33;1.73;;;;;;;8.52;87.49;99220.00;5016289;28;20662;-63
2022/11/23 05:26:36;;;;;;;11.73;2.83;;;;;;;8.50;87.48;99216.69;5019682;28;20203;-64
2022/11/23 05:29:04;;;;;;;6.87;1.93;;;;;;;8.49;87.88;99227.41;5023661;28;20239;-63
2022/11/23 05:31:32;;;;;;;9.33;2.00;;;;;;;8.51;87.51;99225.44;5015650;28;20215;-63
2022/11/23 05:34:03;;;;;;;11.63;2.60;;;;;;;8.51;87.83;99226.25;5019993;28;20303;-63
2022/11/23 05:36:31;;;;;;;9.20;2.70;;;;;;;8.50;88.11;99224.59;5016082;28;20214;-63
2022/11/23 05:38:59;;;;;;;10.90;2.47;;;;;;;8.51;88.05;99223.63;5018255;28;20562;-63
2022/11/23 05:41:26;;;;;;;6.27;2.40;;;;;;;8.57;88.34;99228.22;5021283;28;20602;-65
2022/11/23 05:43:54;;;;;;;10.43;2.80;;;;;;;8.53;87.90;99218.97;5023241;28;20208;-63
2022/11/23 05:46:22;;;;;;;7.00;2.30;;;;;;;8.56;87.79;99226.56;5016514;28;20217;-61
2022/11/23 05:48:49;;;;;;;6.57;2.17;;;;;;;8.56;87.69;99223.09;5016251;28;20234;-63
2022/11/23 05:51:19;;;;;;;7.67;2.03;;;;;;;8.55;87.10;99227.56;5014211;28;20214;-62
2022/11/23 05:53:47;;;;;;;10.67;2.20;;;;;;;8.48;87.94;99231.88;5014116;28;20239;-62
2022/11/23 05:56:14;;;;;;;8.73;1.83;;;;;;;8.47;88.06;99234.66;5018588;28;20218;-64
2022/11/23 05:58:42;;;;;;;8.57;2.00;;;;;;;8.44;88.13;99235.84;5022348;28;20223;-62
2022/11/23 06:01:10;;;;;;;7.43;1.97;;;;;;;8.47;87.92;99232.84;5012190;28;20220;-63
2022/11/23 06:03:37;;;;;;;6.77;1.70;;;;;;;8.41;88.34;99230.03;5017291;28;20740;-64
2022/11/23 06:06:06;;;;;;;6.20;1.70;;;;;;;8.44;88.43;99227.91;5023605;28;20298;-64
2022/11/23 06:08:35;;;;;;;6.07;1.77;;;;;;;8.49;87.73;99233.50;5018957;28;20579;-63
2022/11/23 06:11:03;;;;;;;6.60;1.80;;;;;;;8.47;87.93;99230.22;5017872;28;20262;-62
2022/11/23 06:13:30;;;;;;;5.27;1.83;;;;;;;8.51;87.74;99234.19;5011922;28;20219;-64
2022/11/23 06:15:58;;;;;;;6.07;1.40;;;;;;;8.53;87.48;99237.47;5020719;28;20210;-64
2022/11/23 06:18:26;;;;;;;7.57;1.73;;;;;;;8.50;87.60;99234.34;5012321;28;20218;-64
2022/11/23 06:20:54;;;;;;;12.43;2.23;;;;;;;8.42;87.88;99240.44;5015623;28;20219;-64
2022/11/23 06:23:21;;;;;;;7.77;2.00;;;;;;;8.42;88.38;99232.53;5018320;28;20207;-66
2022/11/23 06:25:50;;;;;;;10.43;2.37;;;;;;;8.48;88.20;99237.16;5017502;28;20211;-63
2022/11/23 06:28:18;;;;;;;6.60;1.90;;;;;;;8.49;87.76;99232.69;5022753;28;20227;-63
2022/11/23 06:30:46;;;;;;;6.93;2.00;;;;;;;8.53;87.38;99229.53;5020262;28;20880;-62
2022/11/23 06:33:13;;;;;;;9.50;3.07;;;;;;;8.49;87.54;99238.81;5016655;28;20206;-62
2022/11/23 06:35:41;;;;;;;11.10;2.77;;;;;;;8.40;88.34;99228.38;5018378;28;20206;-62
2022/11/23 06:38:09;;;;;;;10.67;2.30;;;;;;;8.47;88.25;99230.22;5021712;28;20217;-62
2022/11/23 06:40:37;;;;;;;6.60;2.10;;;;;;;8.49;88.00;99224.75;5014622;28;20212;-67
2022/11/23 06:43:07;;;;;;;7.67;2.33;;;;;;;8.47;88.08;99232.84;5017820;28;20860;-63
2022/11/23 06:45:35;;;;;;;6.93;2.20;;;;;;;8.50;87.89;99232.53;5018081;28;20216;-61
2022/11/23 06:48:02;;;;;;;7.00;2.20;;;;;;;8.53;87.49;99232.19;5017815;28;20237;-64
2022/11/23 06:50:30;;;;;;;9.70;3.70;;;;;;;8.46;87.80;99236.47;5019465;28;20561;-64
2022/11/23 06:52:58;;;;;;;9.37;2.90;;;;;;;8.49;87.79;99244.09;5017663;28;20246;-63
2022/11/23 06:55:26;;;;;;;9.07;2.43;;;;;;;8.48;87.74;99246.88;5024477;28;20216;-62
2022/11/23 06:57:54;;;;;;;9.97;2.73;;;;;;;8.50;87.71;99250.19;5018740;28;20249;-65
2022/11/23 07:00:23;;;;;;;6.80;2.43;;;;;;;8.49;87.52;99246.72;5017494;28;20231;-64
2022/11/23 07:02:52;;;;;;;17.60;2.20;;;;;;;8.48;88.21;99253.00;5028057;28;20211;-63
2022/11/23 07:05:20;;;;;;;9.00;1.93;;;;;;;8.55;88.24;99258.44;5018586;28;20215;-62
2022/11/23 07:07:48;;;;;;;12.87;2.67;;;;;;;8.58;87.70;99258.94;5016299;28;20219;-63
2022/11/23 07:10:17;;;;;;;7.10;2.80;;;;;;;8.62;87.71;99268.19;5017272;28;20233;-63
2022/11/23 07:12:45;;;;;;;6.73;2.20;;;;;;;8.71;87.36;99263.72;5023625;28;20257;-66
2022/11/23 07:15:13;;;;;;;12.53;2.63;;;;;;;8.70;86.51;99266.56;5026072;28;20214;-62
2022/11/23 07:17:44;;;;;;;6.77;2.10;;;;;;;8.72;86.79;99267.19;5014832;28;20218;-63
2022/11/23 07:20:13;;;;;;;11.20;2.07;;;;;;;8.70;86.52;99263.91;5017095;28;20247;-64
2022/11/23 07:22:41;;;;;;;7.27;2.60;;;;;;;8.73;86.26;99271.50;5013159;28;20676;-62
2022/11/23 07:25:10;;;;;;;7.77;2.00;;;;;;;8.69;86.19;99265.72;5016249;28;20654;-63
2022/11/23 07:27:38;;;;;;;11.87;3.13;;;;;;;8.62;86.47;99265.53;5029024;28;20204;-63
2022/11/23 07:30:06;;;;;;;12.90;3.43;;;;;;;8.57;87.33;99262.56;5022831;28;20391;-64
2022/11/23 07:32:34;;;;;;;9.97;2.70;;;;;;;8.53;86.90;99269.16;5017500;28;20307;-63
2022/11/23 07:35:04;;;;;;;11.67;2.70;;;;;;;8.56;86.54;99276.78;5022417;28;20220;-62
2022/11/23 07:37:31;;;;;;;7.30;2.30;;;;;;;8.48;86.83;99275.94;5021104;28;20607;-62
2022/11/23 07:39:59;;;;;;;9.93;2.60;;;;;;;8.45;87.20;99274.44;5027552;28;20238;-68
2022/11/23 07:42:28;;;;;;;6.50;2.13;;;;;;;8.42;87.64;99282.72;5019556;28;20215;-63
2022/11/23 07:45:09;;;;;;;7.13;2.57;;;;;;;8.42;87.70;99274.78;5014169;28;20302;-63
2022/11/23 07:47:37;;;;;;;8.13;2.43;;;;;;;8.43;87.55;99284.38;5009904;28;20235;-63
2022/11/23 07:50:07;;;;;;;8.73;2.30;;;;;;;8.45;87.75;99282.38;5025541;28;20692;-62
2022/11/23 07:52:36;;;;;;;12.07;2.67;;;;;;;8.52;87.29;99287.84;5019359;28;20216;-62
2022/11/23 07:55:05;;;;;;;11.87;3.53;;;;;;;8.58;86.37;99280.09;5023704;28;20216;-63
2022/11/23 07:57:32;;;;;;;6.23;2.70;;;;;;;8.61;86.35;99290.34;5021403;28;20207;-63
2022/11/23 08:00:00;;;;;;;10.90;3.03;;;;;;;8.62;86.04;99286.69;5017555;28;20203;-64
2022/11/23 08:02:28;;;;;;;7.97;3.07;;;;;;;8.65;85.42;99288.19;5019891;28;20305;-62
2022/11/23 08:04:56;;;;;;;10.97;2.87;;;;;;;8.64;85.33;99292.63;5016283;28;20271;-62
2022/11/23 08:07:26;;;;;;;10.37;2.80;;;;;;;8.68;84.81;99285.22;5024298;28;20219;-63
2022/11/23 08:09:54;;;;;;;8.63;2.73;;;;;;;8.67;85.18;99287.03;5022771;28;20566;-63
2022/11/23 08:12:22;;;;;;;8.57;2.70;;;;;;;8.65;84.62;99291.66;5020299;28;20251;-63
2022/11/23 08:14:49;;;;;;;8.90;3.20;;;;;;;8.67;84.25;99289.66;5016471;28;20573;-67
2022/11/23 08:17:17;;;;;;;8.73;2.50;;;;;;;8.64;84.23;99290.00;5019808;28;20217;-63
2022/11/23 08:19:45;;;;;;;10.77;2.93;;;;;;;8.64;84.49;99290.00;5019667;28;20567;-63
2022/11/23 08:22:12;;;;;;;7.37;2.97;;;;;;;8.75;84.26;99285.38;5014944;28;20250;-63
2022/11/23 08:24:44;;;;;;;10.93;2.60;;;;;;;8.75;83.19;99286.19;5020738;28;20303;-62
2022/11/23 08:27:11;;;;;;;9.77;2.00;;;;;;;8.71;83.00;99284.88;5024520;28;20216;-62
2022/11/23 08:29:39;;;;;;;8.40;2.47;;;;;;;8.74;83.02;99281.91;5025630;28;20223;-63
2022/11/23 08:32:07;;;;;;;6.83;2.43;;;;;;;8.76;82.99;99282.56;5016132;28;20557;-66
2022/11/23 08:34:35;;;;;;;8.53;2.10;;;;;;;8.79;82.69;99290.19;5014255;28;20212;-64
2022/11/23 08:37:02;;;;;;;8.67;2.50;;;;;;;8.75;83.04;99285.38;5020823;28;20220;-62
2022/11/23 08:39:30;;;;;;;8.27;2.00;;;;;;;8.85;82.60;99291.31;5014899;28;20220;-62
2022/11/23 08:41:59;;;;;;;11.30;2.63;;;;;;;8.85;81.92;99292.16;5020238;28;20221;-63
2022/11/23 08:44:27;;;;;;;8.23;2.50;;;;;;;8.93;82.46;99288.69;5015861;28;20214;-62
2022/11/23 08:46:55;;;;;;;7.67;2.43;;;;;;;8.92;81.68;99290.50;5019095;28;20227;-62
2022/11/23 08:49:23;;;;;;;8.17;2.33;;;;;;;9.04;82.12;99293.63;5015507;28;20232;-63
2022/11/23 08:51:50;;;;;;;7.23;2.57;;;;;;;9.49;80.92;99284.31;5017635;28;20220;-62
2022/11/23 08:54:18;;;;;;;10.13;2.47;;;;;;;10.46;77.27;99281.22;5020592;28;20209;-63
2022/11/23 08:56:46;;;;;;;7.93;1.90;;;;;;;11.94;70.68;99275.16;5020923;28;20209;-64
2022/11/23 08:59:16;;;;;;;7.10;1.93;;;;;;;13.79;63.15;99277.59;5012865;28;20208;-65
2022/11/23 09:01:44;;;;;;;8.67;2.10;;;;;;;15.33;56.72;99260.66;5015505;28;20242;-63
2022/11/23 09:04:11;;;;;;;7.40;2.37;;;;;;;16.73;52.20;99274.09;5018098;28;20205;-65
2022/11/23 09:06:47;;;;;;;8.23;2.40;;;;;;;17.71;48.67;99271.63;5019118;28;20213;-62
2022/11/23 09:09:14;;;;;;;7.60;2.10;;;;;;;18.78;45.48;99268.16;5019308;28;20231;-64
2022/11/23 09:11:42;;;;;;;9.07;1.97;;;;;;;20.25;42.48;99262.59;5024376;28;20244;-63
2022/11/23 09:14:11;;;;;;;7.17;2.10;;;;;;;20.33;40.94;99264.06;5015442;28;20562;-64
2022/11/23 09:16:40;;;;;;;7.17;2.07;;;;;;;20.24;40.82;99271.72;5016691;28;20209;-64
2022/11/23 09:19:13;;;;;;;6.23;1.70;;;;;;;22.23;38.13;99269.25;5024687;28;20313;-63
2022/11/23 09:21:41;;;;;;;8.00;2.13;;;;;;;24.63;33.99;99257.03;5013726;28;20245;-65
2022/11/23 09:24:10;;;;;;;5.40;2.00;;;;;;;26.07;30.83;99257.44;5015388;28;20296;-64
2022/11/23 09:26:38;;;;;;;6.10;2.00;;;;;;;26.76;29.93;99253.78;5016459;28;20209;-64
2022/11/23 09:29:06;;;;;;;8.25;2.28;;;;;;;26.69;30.02;99253.28;5024248;28;20301;-64
2022/11/23 09:31:35;;;;;;;5.43;1.92;;;;;;;26.15;30.43;99254.94;5016178;28;20205;-63
2022/11/23 09:34:04;;;;;;;5.85;1.77;;;;;;;25.04;31.68;99255.22;5011904;28;20213;-65
2022/11/23 09:36:32;;;;;;;6.50;2.15;;;;;;;23.67;33.31;99262.09;5015921;28;20702;-62
2022/11/23 09:39:00;;;;;;;5.40;1.83;;;;;;;21.74;36.30;99271.00;5012853;28;20216;-63
2022/11/23 09:41:51;;;;;;;6.32;2.15;;;;;;;19.25;40.37;99273.63;5021777;28;20654;-63
2022/11/23 09:44:24;;;;;;;6.85;1.88;;;;;;;17.36;44.20;99273.19;5016370;28;20209;-62
2022/11/23 09:47:03;;;;;;;7.13;2.00;;;;;;;15.87;47.76;99271.03;5016017;28;20284;-65
2022/11/23 09:49:41;;;;;;;5.63;1.93;;;;;;;14.86;51.09;99281.22;5014920;28;20240;-63
2022/11/23 09:52:16;;;;;;;5.87;2.13;;;;;;;14.10;53.89;99280.59;5021870;28;20209;-62
2022/11/23 09:54:47;;;;;;;4.37;1.47;;;;;;;13.68;55.35;99276.31;5017526;28;20286;-63
2022/11/23 09:57:19;;;;;;;8.97;2.20;;;;;;;13.42;56.89;99282.31;5013337;28;20216;-63
2022/11/23 09:59:52;;;;;;;8.97;2.43;;;;;;;13.12;57.86;99286.13;5014540;28;20227;-63
2022/11/23 10:02:22;;;;;;;7.53;2.13;;;;;;;13.26;57.84;99282.63;5013564;28;20270;-64
2022/11/23 10:04:53;;;;;;;5.97;2.13;;;;;;;13.29;57.33;99276.06;5016167;28;20214;-63
2022/11/23 10:07:39;;;;;;;8.57;2.20;;;;;;;13.38;57.53;99277.56;5012787;28;20246;-63
2022/11/23 10:10:19;;;;;;;5.50;1.90;;;;;;;14.63;54.33;99270.94;5015222;28;20267;-63
2022/11/23 10:12:54;;;;;;;6.40;2.30;;;;;;;16.25;50.31;99259.56;5022433;28;20262;-65
2022/11/23 10:15:26;;;;;;;4.50;1.63;;;;;;;19.34;42.84;99257.94;5021134;28;20219;-63
2022/11/23 10:18:04;;;;;;;5.70;1.77;;;;;;;21.95;37.42;99247.81;5022861;28;20209;-63
2022/11/23 10:20:44;;;;;;;8.17;2.13;;;;;;;21.67;36.51;99248.78;5019962;28;20795;-64
2022/11/23 10:23:18;;;;;;;6.53;1.80;;;;;;;19.50;39.97;99246.53;5020181;28;20591;-62
2022/11/23 10:25:48;;;;;;;6.80;2.27;;;;;;;17.81;43.92;99249.66;5032610;28;20213;-63
2022/11/23 10:28:19;;;;;;;6.50;2.07;;;;;;;19.07;42.57;99250.34;5024594;28;20205;-64
2022/11/23 10:30:52;;;;;;;6.97;1.97;;;;;;;19.88;40.40;99241.41;5023013;28;20721;-63
2022/11/23 10:33:26;;;;;;;6.70;1.90;;;;;;;19.65;40.63;99246.84;5025267;28;20936;-65
2022/11/23 10:35:55;;;;;;;6.60;2.43;;;;;;;19.31;41.47;99240.41;5016935;28;20298;-63
2022/11/23 10:38:27;;;;;;;5.57;2.07;;;;;;;19.70;40.76;99241.56;5014451;28;20303;-63
2022/11/23 10:41:02;;;;;;;5.28;1.75;;;;;;;20.06;39.92;99237.72;5023221;28;20223;-63
2022/11/23 10:43:36;;;;;;;4.72;1.85;;;;;;;20.76;38.97;99239.31;5022239;28;20212;-63
2022/11/23 10:46:26;;;;;;;5.72;1.85;;;;;;;20.95;37.56;99235.31;5021612;28;20206;-66
2022/11/23 10:48:55;;;;;;;6.15;2.13;;;;;;;20.61;38.97;99237.97;5020203;28;20236;-63
2022/11/23 10:51:31;;;;;;;7.75;2.17;;;;;;;21.28;37.51;99231.81;5019299;28;20284;-63
2022/11/23 10:54:01;;;;;;;6.95;1.95;;;;;;;21.36;37.42;99232.22;5018508;28;20212;-63
2022/11/23 10:56:33;;;;;;;8.13;2.03;;;;;;;21.24;37.43;99227.97;5018151;28;20248;-64
2022/11/23 10:59:01;;;;;;;6.07;1.92;;;;;;;20.73;38.14;99220.94;5022581;28;20574;-63
2022/11/23 11:01:29;;;;;;;8.45;2.40;;;;;;;20.23;38.91;99216.25;5020117;28;20421;-62
2022/11/23 11:04:02;;;;;;;5.13;1.98;;;;;;;19.65;39.96;99217.25;5018380;28;20209;-63
2022/11/23 11:06:34;;;;;;;8.07;1.97;;;;;;;19.61;40.01;99218.81;5017111;28;20209;-64
2022/11/23 11:09:04;;;;;;;7.72;2.00;;;;;;;20.00;38.93;99219.03;5016646;28;20658;-64
2022/11/23 11:11:45;;;;;;;7.37;1.60;;;;;;;19.90;39.08;99209.72;5022814;28;20760;-63
2022/11/23 11:14:16;;;;;;;7.07;1.50;;;;;;;19.80;39.03;99206.00;5019636;28;20262;-64
2022/11/23 11:16:48;;;;;;;5.30;1.58;;;;;;;20.64;37.84;99201.69;5014148;28;20220;-63
2022/11/23 11:19:27;;;;;;;5.90;1.60;;;;;;;22.06;35.44;99192.91;5016322;28;20248;-64
2022/11/23 11:21:57;;;;;;;7.00;1.77;;;;;;;22.14;35.38;99195.16;5014159;28;20237;-62
2022/11/23 11:24:31;;;;;;;6.63;1.85;;;;;;;21.49;36.43;99197.84;5022627;28;20216;-63
2022/11/23 11:27:03;;;;;;;11.50;2.03;;;;;;;20.44;37.83;99191.38;5019658;28;20745;-63
2022/11/23 11:29:33;;;;;;;6.65;2.05;;;;;;;19.16;39.99;99184.47;5011752;28;20440;-63
2022/11/23 11:32:11;;;;;;;5.10;1.90;;;;;;;17.71;42.37;99187.69;5016610;28;20233;-63
2022/11/23 11:34:44;;;;;;;6.37;1.80;;;;;;;16.53;44.65;99182.44;5019807;28;20642;-62
2022/11/23 11:37:18;;;;;;;6.60;1.90;;;;;;;15.72;46.66;99179.63;5018390;28;20293;-63
2022/11/23 11:39:51;;;;;;;10.07;2.43;;;;;;;15.22;48.91;99170.50;5022389;28;20209;-63
2022/11/23 11:42:30;;;;;;;6.20;1.53;;;;;;;14.86;50.09;99169.16;5019537;28;20209;-64
2022/11/23 11:45:01;;;;;;;9.00;2.10;;;;;;;14.77;50.60;99172.22;5017620;28;20704;-64
2022/11/23 11:47:33;;;;;;;12.17;2.10;;;;;;;14.58;51.04;99169.38;5015981;28;20209;-63